sensor_id;sensor_type;location;lat;lon;timestamp;temperature;humidity
38265;DHT22;24062;47.480;8.768;2023-05-19T00:02:24;10.80;74.10
38265;DHT22;24062;47.480;8.768;2023-05-19T00:04:53;10.70;74.80
38265;DHT22;24062;47.480;8.768;2023-05-19T00:07:24;10.60;74.80
38265;DHT22;24062;47.480;8.768;2023-05-19T00:09:54;10.60;74.80
38265;DHT22;24062;47.480;8.768;2023-05-19T00:12:22;10.60;75.00
38265;DHT22;24062;47.480;8.768;2023-05-19T00:14:49;10.60;75.10
38265;DHT22;24062;47.480;8.768;2023-05-19T00:17:17;10.70;75.30
38265;DHT22;24062;47.480;8.768;2023-05-19T00:19:44;10.70;75.20
38265;DHT22;24062;47.480;8.768;2023-05-19T00:22:13;10.70;75.80
38265;DHT22;24062;47.480;8.768;2023-05-19T00:24:40;10.60;75.90
38265;DHT22;24062;47.480;8.768;2023-05-19T00:27:07;10.60;76.20
38265;DHT22;24062;47.480;8.768;2023-05-19T00:29:34;10.50;76.40
38265;DHT22;24062;47.480;8.768;2023-05-19T00:32:01;10.50;76.50
38265;DHT22;24062;47.480;8.768;2023-05-19T00:34:28;10.50;76.60
38265;DHT22;24062;47.480;8.768;2023-05-19T00:36:55;10.50;76.80
38265;DHT22;24062;47.480;8.768;2023-05-19T00:39:23;10.60;77.10
38265;DHT22;24062;47.480;8.768;2023-05-19T00:41:50;10.60;77.00
38265;DHT22;24062;47.480;8.768;2023-05-19T00:44:17;10.50;77.00
38265;DHT22;24062;47.480;8.768;2023-05-19T00:46:44;10.50;77.40
38265;DHT22;24062;47.480;8.768;2023-05-19T00:49:11;10.50;77.40
38265;DHT22;24062;47.480;8.768;2023-05-19T00:51:38;10.40;77.30
38265;DHT22;24062;47.480;8.768;2023-05-19T00:54:06;10.30;77.80
38265;DHT22;24062;47.480;8.768;2023-05-19T00:56:35;10.20;77.70
38265;DHT22;24062;47.480;8.768;2023-05-19T00:59:02;10.30;78.00
38265;DHT22;24062;47.480;8.768;2023-05-19T01:01:29;10.30;78.10
38265;DHT22;24062;47.480;8.768;2023-05-19T01:03:57;10.30;78.10
38265;DHT22;24062;47.480;8.768;2023-05-19T01:06:24;10.30;78.10
38265;DHT22;24062;47.480;8.768;2023-05-19T01:08:53;10.30;78.30
38265;DHT22;24062;47.480;8.768;2023-05-19T01:11:20;10.30;78.50
38265;DHT22;24062;47.480;8.768;2023-05-19T01:13:48;10.20;78.40
38265;DHT22;24062;47.480;8.768;2023-05-19T01:16:21;10.20;78.70
38265;DHT22;24062;47.480;8.768;2023-05-19T01:18:51;10.30;78.70
38265;DHT22;24062;47.480;8.768;2023-05-19T01:24:29;10.30;79.20
38265;DHT22;24062;47.480;8.768;2023-05-19T01:27:29;10.30;79.20
38265;DHT22;24062;47.480;8.768;2023-05-19T01:30:25;10.30;79.70
38265;DHT22;24062;47.480;8.768;2023-05-19T01:32:53;10.20;79.80
38265;DHT22;24062;47.480;8.768;2023-05-19T01:35:22;10.20;79.90
38265;DHT22;24062;47.480;8.768;2023-05-19T01:37:51;10.20;80.30
38265;DHT22;24062;47.480;8.768;2023-05-19T01:40:20;10.20;80.30
38265;DHT22;24062;47.480;8.768;2023-05-19T01:42:50;10.20;80.40
38265;DHT22;24062;47.480;8.768;2023-05-19T01:45:19;10.30;80.30
38265;DHT22;24062;47.480;8.768;2023-05-19T01:47:49;10.40;80.70
38265;DHT22;24062;47.480;8.768;2023-05-19T01:50:16;10.40;80.80
38265;DHT22;24062;47.480;8.768;2023-05-19T01:52:43;10.30;81.00
38265;DHT22;24062;47.480;8.768;2023-05-19T01:55:10;10.30;81.00
38265;DHT22;24062;47.480;8.768;2023-05-19T01:57:46;10.30;81.20
38265;DHT22;24062;47.480;8.768;2023-05-19T02:00:20;10.30;81.40
38265;DHT22;24062;47.480;8.768;2023-05-19T02:02:56;10.30;81.60
38265;DHT22;24062;47.480;8.768;2023-05-19T02:05:35;10.30;81.60
38265;DHT22;24062;47.480;8.768;2023-05-19T02:08:10;10.40;81.90
38265;DHT22;24062;47.480;8.768;2023-05-19T02:10:40;10.40;82.40
38265;DHT22;24062;47.480;8.768;2023-05-19T02:13:11;10.40;82.10
38265;DHT22;24062;47.480;8.768;2023-05-19T02:15:41;10.40;82.10
38265;DHT22;24062;47.480;8.768;2023-05-19T02:18:11;10.30;82.10
38265;DHT22;24062;47.480;8.768;2023-05-19T02:20:42;10.30;82.40
38265;DHT22;24062;47.480;8.768;2023-05-19T02:23:09;10.30;82.40
38265;DHT22;24062;47.480;8.768;2023-05-19T02:25:36;10.40;82.60
38265;DHT22;24062;47.480;8.768;2023-05-19T02:28:03;10.40;82.40
38265;DHT22;24062;47.480;8.768;2023-05-19T02:30:31;10.30;82.50
38265;DHT22;24062;47.480;8.768;2023-05-19T02:32:59;10.30;82.60
38265;DHT22;24062;47.480;8.768;2023-05-19T02:35:26;10.30;83.00
38265;DHT22;24062;47.480;8.768;2023-05-19T02:37:53;10.30;82.90
38265;DHT22;24062;47.480;8.768;2023-05-19T02:40:21;10.30;83.10
38265;DHT22;24062;47.480;8.768;2023-05-19T02:42:48;10.30;83.00
38265;DHT22;24062;47.480;8.768;2023-05-19T02:45:15;10.30;83.00
38265;DHT22;24062;47.480;8.768;2023-05-19T02:47:42;10.30;83.10
38265;DHT22;24062;47.480;8.768;2023-05-19T02:50:10;10.30;83.10
38265;DHT22;24062;47.480;8.768;2023-05-19T02:52:37;10.30;83.10
38265;DHT22;24062;47.480;8.768;2023-05-19T02:55:05;10.20;82.90
38265;DHT22;24062;47.480;8.768;2023-05-19T02:57:33;10.20;83.00
38265;DHT22;24062;47.480;8.768;2023-05-19T03:00:00;10.20;83.50
38265;DHT22;24062;47.480;8.768;2023-05-19T03:02:27;10.10;83.00
38265;DHT22;24062;47.480;8.768;2023-05-19T03:04:54;10.10;83.20
38265;DHT22;24062;47.480;8.768;2023-05-19T03:07:22;10.10;83.20
38265;DHT22;24062;47.480;8.768;2023-05-19T03:09:49;10.10;83.30
38265;DHT22;24062;47.480;8.768;2023-05-19T03:12:17;10.10;83.20
38265;DHT22;24062;47.480;8.768;2023-05-19T03:14:43;10.00;83.10
38265;DHT22;24062;47.480;8.768;2023-05-19T03:17:11;10.00;83.10
38265;DHT22;24062;47.480;8.768;2023-05-19T03:19:38;10.00;83.00
38265;DHT22;24062;47.480;8.768;2023-05-19T03:22:06;9.90;83.90
38265;DHT22;24062;47.480;8.768;2023-05-19T03:24:34;9.90;84.10
38265;DHT22;24062;47.480;8.768;2023-05-19T03:27:01;9.80;84.30
38265;DHT22;24062;47.480;8.768;2023-05-19T03:29:29;9.80;84.40
38265;DHT22;24062;47.480;8.768;2023-05-19T03:31:56;9.70;84.70
38265;DHT22;24062;47.480;8.768;2023-05-19T03:34:24;9.70;84.80
38265;DHT22;24062;47.480;8.768;2023-05-19T03:36:51;9.60;84.90
38265;DHT22;24062;47.480;8.768;2023-05-19T03:39:18;9.60;85.10
38265;DHT22;24062;47.480;8.768;2023-05-19T03:41:46;9.50;85.00
38265;DHT22;24062;47.480;8.768;2023-05-19T03:44:14;9.50;85.30
38265;DHT22;24062;47.480;8.768;2023-05-19T03:46:41;9.40;85.40
38265;DHT22;24062;47.480;8.768;2023-05-19T03:49:08;9.40;85.60
38265;DHT22;24062;47.480;8.768;2023-05-19T03:51:36;9.40;85.50
38265;DHT22;24062;47.480;8.768;2023-05-19T03:54:03;9.40;85.80
38265;DHT22;24062;47.480;8.768;2023-05-19T03:56:30;9.40;85.90
38265;DHT22;24062;47.480;8.768;2023-05-19T03:58:58;9.40;86.20
38265;DHT22;24062;47.480;8.768;2023-05-19T04:01:25;9.40;86.20
38265;DHT22;24062;47.480;8.768;2023-05-19T04:03:52;9.40;86.60
38265;DHT22;24062;47.480;8.768;2023-05-19T04:06:19;9.40;86.50
38265;DHT22;24062;47.480;8.768;2023-05-19T04:08:46;9.50;86.60
38265;DHT22;24062;47.480;8.768;2023-05-19T04:11:13;9.50;86.30
38265;DHT22;24062;47.480;8.768;2023-05-19T04:13:40;9.50;86.30
38265;DHT22;24062;47.480;8.768;2023-05-19T04:16:08;9.50;86.50
38265;DHT22;24062;47.480;8.768;2023-05-19T04:18:35;9.50;86.70
38265;DHT22;24062;47.480;8.768;2023-05-19T04:21:02;9.50;86.80
38265;DHT22;24062;47.480;8.768;2023-05-19T04:23:29;9.50;86.90
38265;DHT22;24062;47.480;8.768;2023-05-19T04:25:57;9.60;86.90
38265;DHT22;24062;47.480;8.768;2023-05-19T04:28:26;9.60;87.30
38265;DHT22;24062;47.480;8.768;2023-05-19T04:30:53;9.60;87.20
38265;DHT22;24062;47.480;8.768;2023-05-19T04:33:24;9.60;87.20
38265;DHT22;24062;47.480;8.768;2023-05-19T04:35:53;9.70;87.50
38265;DHT22;24062;47.480;8.768;2023-05-19T04:38:20;9.80;87.90
38265;DHT22;24062;47.480;8.768;2023-05-19T04:40:47;9.90;88.00
38265;DHT22;24062;47.480;8.768;2023-05-19T04:43:16;10.00;86.90
38265;DHT22;24062;47.480;8.768;2023-05-19T04:45:45;10.20;86.70
38265;DHT22;24062;47.480;8.768;2023-05-19T04:48:14;10.30;86.60
38265;DHT22;24062;47.480;8.768;2023-05-19T04:50:42;10.40;86.50
38265;DHT22;24062;47.480;8.768;2023-05-19T04:53:09;10.50;86.70
38265;DHT22;24062;47.480;8.768;2023-05-19T04:55:37;10.60;86.50
38265;DHT22;24062;47.480;8.768;2023-05-19T04:58:04;10.70;86.40
38265;DHT22;24062;47.480;8.768;2023-05-19T05:00:31;10.80;86.30
38265;DHT22;24062;47.480;8.768;2023-05-19T05:03:00;10.80;85.90
38265;DHT22;24062;47.480;8.768;2023-05-19T05:05:29;10.90;86.20
38265;DHT22;24062;47.480;8.768;2023-05-19T05:07:57;10.90;86.20
38265;DHT22;24062;47.480;8.768;2023-05-19T05:10:25;11.00;86.00
38265;DHT22;24062;47.480;8.768;2023-05-19T05:12:52;11.00;85.70
38265;DHT22;24062;47.480;8.768;2023-05-19T05:15:20;11.00;85.40
38265;DHT22;24062;47.480;8.768;2023-05-19T05:17:49;11.00;85.80
38265;DHT22;24062;47.480;8.768;2023-05-19T05:20:16;11.00;85.60
38265;DHT22;24062;47.480;8.768;2023-05-19T05:22:45;11.10;85.50
38265;DHT22;24062;47.480;8.768;2023-05-19T05:25:15;11.10;85.50
38265;DHT22;24062;47.480;8.768;2023-05-19T05:27:42;11.20;85.10
38265;DHT22;24062;47.480;8.768;2023-05-19T05:30:10;11.10;85.10
38265;DHT22;24062;47.480;8.768;2023-05-19T05:32:37;11.10;85.40
38265;DHT22;24062;47.480;8.768;2023-05-19T05:35:05;11.20;85.40
38265;DHT22;24062;47.480;8.768;2023-05-19T05:37:32;11.20;85.30
38265;DHT22;24062;47.480;8.768;2023-05-19T05:39:59;11.30;85.50
38265;DHT22;24062;47.480;8.768;2023-05-19T05:42:27;11.40;85.30
38265;DHT22;24062;47.480;8.768;2023-05-19T05:44:54;11.40;85.20
38265;DHT22;24062;47.480;8.768;2023-05-19T05:47:21;11.50;85.30
38265;DHT22;24062;47.480;8.768;2023-05-19T05:49:48;11.60;85.20
38265;DHT22;24062;47.480;8.768;2023-05-19T05:52:17;11.60;84.30
38265;DHT22;24062;47.480;8.768;2023-05-19T05:54:47;11.50;84.30
38265;DHT22;24062;47.480;8.768;2023-05-19T05:57:14;11.50;84.10
38265;DHT22;24062;47.480;8.768;2023-05-19T05:59:42;11.60;84.10
38265;DHT22;24062;47.480;8.768;2023-05-19T06:02:11;11.60;84.00
38265;DHT22;24062;47.480;8.768;2023-05-19T06:04:38;11.60;83.90
38265;DHT22;24062;47.480;8.768;2023-05-19T06:07:06;11.60;84.10
38265;DHT22;24062;47.480;8.768;2023-05-19T06:09:33;11.70;83.10
38265;DHT22;24062;47.480;8.768;2023-05-19T06:12:00;11.70;83.10
38265;DHT22;24062;47.480;8.768;2023-05-19T06:14:27;11.70;83.40
38265;DHT22;24062;47.480;8.768;2023-05-19T06:16:55;11.80;83.30
38265;DHT22;24062;47.480;8.768;2023-05-19T06:19:22;11.80;82.80
38265;DHT22;24062;47.480;8.768;2023-05-19T06:21:50;11.80;82.90
38265;DHT22;24062;47.480;8.768;2023-05-19T06:24:17;11.90;82.70
38265;DHT22;24062;47.480;8.768;2023-05-19T06:26:44;11.90;82.50
38265;DHT22;24062;47.480;8.768;2023-05-19T06:29:10;12.00;83.00
38265;DHT22;24062;47.480;8.768;2023-05-19T06:31:37;12.10;82.80
38265;DHT22;24062;47.480;8.768;2023-05-19T06:34:06;12.10;82.70
38265;DHT22;24062;47.480;8.768;2023-05-19T06:36:34;12.20;82.00
38265;DHT22;24062;47.480;8.768;2023-05-19T06:39:01;12.20;82.00
38265;DHT22;24062;47.480;8.768;2023-05-19T06:41:28;12.20;81.90
38265;DHT22;24062;47.480;8.768;2023-05-19T06:43:55;12.20;81.70
38265;DHT22;24062;47.480;8.768;2023-05-19T06:46:22;12.20;81.40
38265;DHT22;24062;47.480;8.768;2023-05-19T06:48:50;12.10;81.30
38265;DHT22;24062;47.480;8.768;2023-05-19T06:51:18;12.10;80.80
38265;DHT22;24062;47.480;8.768;2023-05-19T06:53:46;12.00;81.10
38265;DHT22;24062;47.480;8.768;2023-05-19T06:56:13;12.10;81.50
38265;DHT22;24062;47.480;8.768;2023-05-19T06:58:40;12.10;81.50
38265;DHT22;24062;47.480;8.768;2023-05-19T07:01:08;12.10;81.10
38265;DHT22;24062;47.480;8.768;2023-05-19T07:03:35;12.20;81.50
38265;DHT22;24062;47.480;8.768;2023-05-19T07:06:02;12.20;80.90
38265;DHT22;24062;47.480;8.768;2023-05-19T07:08:30;12.20;81.30
38265;DHT22;24062;47.480;8.768;2023-05-19T07:10:57;12.30;81.30
38265;DHT22;24062;47.480;8.768;2023-05-19T07:13:24;12.30;81.50
38265;DHT22;24062;47.480;8.768;2023-05-19T07:15:51;12.40;81.50
38265;DHT22;24062;47.480;8.768;2023-05-19T07:18:20;12.50;81.60
38265;DHT22;24062;47.480;8.768;2023-05-19T07:20:47;12.60;80.00
38265;DHT22;24062;47.480;8.768;2023-05-19T07:23:14;12.50;80.40
38265;DHT22;24062;47.480;8.768;2023-05-19T07:25:42;12.50;80.80
38265;DHT22;24062;47.480;8.768;2023-05-19T07:28:09;12.50;80.70
38265;DHT22;24062;47.480;8.768;2023-05-19T07:30:36;12.60;81.00
38265;DHT22;24062;47.480;8.768;2023-05-19T07:33:03;12.60;80.20
38265;DHT22;24062;47.480;8.768;2023-05-19T07:35:31;12.70;80.80
38265;DHT22;24062;47.480;8.768;2023-05-19T07:37:58;12.70;79.80
38265;DHT22;24062;47.480;8.768;2023-05-19T07:40:25;12.60;80.10
38265;DHT22;24062;47.480;8.768;2023-05-19T07:42:53;12.60;79.30
38265;DHT22;24062;47.480;8.768;2023-05-19T07:45:20;12.60;79.10
38265;DHT22;24062;47.480;8.768;2023-05-19T07:47:47;12.60;79.20
38265;DHT22;24062;47.480;8.768;2023-05-19T07:50:14;12.60;79.40
38265;DHT22;24062;47.480;8.768;2023-05-19T07:52:41;12.70;79.80
38265;DHT22;24062;47.480;8.768;2023-05-19T07:55:08;12.70;79.40
38265;DHT22;24062;47.480;8.768;2023-05-19T07:57:36;12.70;78.90
38265;DHT22;24062;47.480;8.768;2023-05-19T08:00:06;12.80;79.60
38265;DHT22;24062;47.480;8.768;2023-05-19T08:02:34;12.80;78.50
38265;DHT22;24062;47.480;8.768;2023-05-19T08:05:01;12.70;79.00
38265;DHT22;24062;47.480;8.768;2023-05-19T08:07:28;12.80;79.20
38265;DHT22;24062;47.480;8.768;2023-05-19T08:09:55;12.80;79.50
38265;DHT22;24062;47.480;8.768;2023-05-19T08:12:22;13.00;79.30
38265;DHT22;24062;47.480;8.768;2023-05-19T08:14:49;13.10;78.90
38265;DHT22;24062;47.480;8.768;2023-05-19T08:17:18;13.10;78.30
38265;DHT22;24062;47.480;8.768;2023-05-19T08:19:45;13.10;78.80
38265;DHT22;24062;47.480;8.768;2023-05-19T08:22:12;13.00;77.50
38265;DHT22;24062;47.480;8.768;2023-05-19T08:24:39;12.90;77.90
38265;DHT22;24062;47.480;8.768;2023-05-19T08:27:07;12.80;77.60
38265;DHT22;24062;47.480;8.768;2023-05-19T08:29:34;12.80;78.10
38265;DHT22;24062;47.480;8.768;2023-05-19T08:32:03;12.90;78.60
38265;DHT22;24062;47.480;8.768;2023-05-19T08:34:31;13.00;78.80
38265;DHT22;24062;47.480;8.768;2023-05-19T08:36:58;13.10;78.50
38265;DHT22;24062;47.480;8.768;2023-05-19T08:39:25;13.20;78.20
38265;DHT22;24062;47.480;8.768;2023-05-19T08:41:52;13.30;78.60
38265;DHT22;24062;47.480;8.768;2023-05-19T08:44:19;13.50;78.30
38265;DHT22;24062;47.480;8.768;2023-05-19T08:46:46;13.50;77.60
38265;DHT22;24062;47.480;8.768;2023-05-19T08:49:14;13.60;78.10
38265;DHT22;24062;47.480;8.768;2023-05-19T08:51:49;13.70;77.70
38265;DHT22;24062;47.480;8.768;2023-05-19T08:54:23;13.80;77.50
38265;DHT22;24062;47.480;8.768;2023-05-19T08:56:51;13.90;77.30
38265;DHT22;24062;47.480;8.768;2023-05-19T08:59:18;14.00;77.30
38265;DHT22;24062;47.480;8.768;2023-05-19T09:01:47;14.30;78.20
38265;DHT22;24062;47.480;8.768;2023-05-19T09:04:15;14.30;77.40
38265;DHT22;24062;47.480;8.768;2023-05-19T09:06:42;14.30;76.80
38265;DHT22;24062;47.480;8.768;2023-05-19T09:09:11;14.20;76.90
38265;DHT22;24062;47.480;8.768;2023-05-19T09:11:38;14.20;76.90
38265;DHT22;24062;47.480;8.768;2023-05-19T09:14:04;14.20;75.90
38265;DHT22;24062;47.480;8.768;2023-05-19T09:16:31;14.10;75.30
38265;DHT22;24062;47.480;8.768;2023-05-19T09:18:58;14.10;76.10
38265;DHT22;24062;47.480;8.768;2023-05-19T09:21:29;14.20;76.30
38265;DHT22;24062;47.480;8.768;2023-05-19T09:23:56;14.40;76.60
38265;DHT22;24062;47.480;8.768;2023-05-19T09:26:35;14.60;76.30
38265;DHT22;24062;47.480;8.768;2023-05-19T09:29:09;14.70;75.10
38265;DHT22;24062;47.480;8.768;2023-05-19T09:31:37;14.60;74.60
38265;DHT22;24062;47.480;8.768;2023-05-19T09:34:04;14.50;74.60
38265;DHT22;24062;47.480;8.768;2023-05-19T09:36:38;14.40;74.80
38265;DHT22;24062;47.480;8.768;2023-05-19T09:39:12;14.50;75.00
38265;DHT22;24062;47.480;8.768;2023-05-19T09:41:40;14.70;75.00
38265;DHT22;24062;47.480;8.768;2023-05-19T09:44:11;14.70;74.70
38265;DHT22;24062;47.480;8.768;2023-05-19T09:46:46;14.90;74.90
38265;DHT22;24062;47.480;8.768;2023-05-19T09:49:18;14.90;74.10
38265;DHT22;24062;47.480;8.768;2023-05-19T09:51:48;15.10;75.00
38265;DHT22;24062;47.480;8.768;2023-05-19T09:54:15;15.20;74.90
38265;DHT22;24062;47.480;8.768;2023-05-19T09:56:44;15.40;74.60
38265;DHT22;24062;47.480;8.768;2023-05-19T09:59:12;15.50;74.30
38265;DHT22;24062;47.480;8.768;2023-05-19T10:01:41;15.50;73.20
38265;DHT22;24062;47.480;8.768;2023-05-19T10:04:12;15.50;73.40
38265;DHT22;24062;47.480;8.768;2023-05-19T10:06:39;15.50;73.80
38265;DHT22;24062;47.480;8.768;2023-05-19T10:09:07;15.40;72.90
38265;DHT22;24062;47.480;8.768;2023-05-19T10:11:34;15.40;73.40
38265;DHT22;24062;47.480;8.768;2023-05-19T10:14:03;15.50;72.70
38265;DHT22;24062;47.480;8.768;2023-05-19T10:16:30;15.40;72.90
38265;DHT22;24062;47.480;8.768;2023-05-19T10:18:58;15.40;73.10
38265;DHT22;24062;47.480;8.768;2023-05-19T10:21:26;15.50;73.60
38265;DHT22;24062;47.480;8.768;2023-05-19T10:23:53;15.70;73.90
38265;DHT22;24062;47.480;8.768;2023-05-19T10:26:21;15.80;73.30
38265;DHT22;24062;47.480;8.768;2023-05-19T10:28:49;15.70;72.40
38265;DHT22;24062;47.480;8.768;2023-05-19T10:31:20;15.70;72.50
38265;DHT22;24062;47.480;8.768;2023-05-19T10:34:04;15.70;71.80
38265;DHT22;24062;47.480;8.768;2023-05-19T10:36:43;15.70;72.00
38265;DHT22;24062;47.480;8.768;2023-05-19T10:39:15;15.70;72.00
38265;DHT22;24062;47.480;8.768;2023-05-19T10:41:49;15.70;71.20
38265;DHT22;24062;47.480;8.768;2023-05-19T10:44:27;15.60;71.60
38265;DHT22;24062;47.480;8.768;2023-05-19T10:46:58;15.60;71.40
38265;DHT22;24062;47.480;8.768;2023-05-19T10:49:25;15.70;71.60
38265;DHT22;24062;47.480;8.768;2023-05-19T10:51:54;15.70;72.00
38265;DHT22;24062;47.480;8.768;2023-05-19T10:54:41;15.70;71.70
38265;DHT22;24062;47.480;8.768;2023-05-19T10:57:13;15.70;71.20
38265;DHT22;24062;47.480;8.768;2023-05-19T10:59:41;15.80;73.00
38265;DHT22;24062;47.480;8.768;2023-05-19T11:02:38;15.90;71.60
38265;DHT22;24062;47.480;8.768;2023-05-19T11:05:10;16.00;71.20
38265;DHT22;24062;47.480;8.768;2023-05-19T11:07:40;16.10;71.50
38265;DHT22;24062;47.480;8.768;2023-05-19T11:10:09;16.20;71.20
38265;DHT22;24062;47.480;8.768;2023-05-19T11:12:40;16.30;71.10
38265;DHT22;24062;47.480;8.768;2023-05-19T11:15:10;16.20;70.20
38265;DHT22;24062;47.480;8.768;2023-05-19T11:17:40;16.20;70.10
38265;DHT22;24062;47.480;8.768;2023-05-19T11:20:08;16.30;70.50
38265;DHT22;24062;47.480;8.768;2023-05-19T11:23:00;16.50;70.60
38265;DHT22;24062;47.480;8.768;2023-05-19T11:25:40;17.10;70.70
38265;DHT22;24062;47.480;8.768;2023-05-19T11:28:09;17.70;71.00
38265;DHT22;24062;47.480;8.768;2023-05-19T11:30:37;18.10;69.60
38265;DHT22;24062;47.480;8.768;2023-05-19T11:33:05;18.30;69.30
38265;DHT22;24062;47.480;8.768;2023-05-19T11:35:34;18.40;68.40
38265;DHT22;24062;47.480;8.768;2023-05-19T11:38:01;18.60;68.60
38265;DHT22;24062;47.480;8.768;2023-05-19T11:40:29;18.80;67.50
38265;DHT22;24062;47.480;8.768;2023-05-19T11:42:57;19.10;67.50
38265;DHT22;24062;47.480;8.768;2023-05-19T11:45:26;19.40;68.60
38265;DHT22;24062;47.480;8.768;2023-05-19T11:47:54;19.80;67.40
38265;DHT22;24062;47.480;8.768;2023-05-19T11:50:23;20.10;66.40
38265;DHT22;24062;47.480;8.768;2023-05-19T11:52:51;20.20;66.00
38265;DHT22;24062;47.480;8.768;2023-05-19T11:55:19;20.50;65.60
38265;DHT22;24062;47.480;8.768;2023-05-19T11:57:55;20.50;66.20
38265;DHT22;24062;47.480;8.768;2023-05-19T12:00:23;20.70;63.40
38265;DHT22;24062;47.480;8.768;2023-05-19T12:02:50;20.60;63.90
38265;DHT22;24062;47.480;8.768;2023-05-19T12:05:18;20.60;63.00
38265;DHT22;24062;47.480;8.768;2023-05-19T12:07:47;20.70;64.20
38265;DHT22;24062;47.480;8.768;2023-05-19T12:10:16;21.00;64.00
38265;DHT22;24062;47.480;8.768;2023-05-19T12:12:45;21.10;63.60
38265;DHT22;24062;47.480;8.768;2023-05-19T12:15:12;21.20;63.20
38265;DHT22;24062;47.480;8.768;2023-05-19T12:17:41;21.30;61.30
38265;DHT22;24062;47.480;8.768;2023-05-19T12:20:09;21.10;60.80
38265;DHT22;24062;47.480;8.768;2023-05-19T12:22:37;21.10;61.90
38265;DHT22;24062;47.480;8.768;2023-05-19T12:25:06;21.30;61.80
38265;DHT22;24062;47.480;8.768;2023-05-19T12:27:34;21.60;61.20
38265;DHT22;24062;47.480;8.768;2023-05-19T12:30:03;21.90;61.80
38265;DHT22;24062;47.480;8.768;2023-05-19T12:32:32;22.10;61.60
38265;DHT22;24062;47.480;8.768;2023-05-19T12:35:01;22.10;59.70
38265;DHT22;24062;47.480;8.768;2023-05-19T12:37:29;21.90;59.10
38265;DHT22;24062;47.480;8.768;2023-05-19T12:39:56;21.70;59.80
38265;DHT22;24062;47.480;8.768;2023-05-19T12:42:26;21.50;58.70
38265;DHT22;24062;47.480;8.768;2023-05-19T12:44:56;21.10;58.70
38265;DHT22;24062;47.480;8.768;2023-05-19T12:47:29;20.80;58.60
38265;DHT22;24062;47.480;8.768;2023-05-19T12:50:00;20.60;59.00
38265;DHT22;24062;47.480;8.768;2023-05-19T12:52:29;20.30;58.20
38265;DHT22;24062;47.480;8.768;2023-05-19T12:54:57;20.00;58.60
38265;DHT22;24062;47.480;8.768;2023-05-19T12:57:27;20.10;59.70
38265;DHT22;24062;47.480;8.768;2023-05-19T12:59:59;20.20;58.70
38265;DHT22;24062;47.480;8.768;2023-05-19T13:02:26;20.10;58.50
38265;DHT22;24062;47.480;8.768;2023-05-19T13:04:53;20.10;58.90
38265;DHT22;24062;47.480;8.768;2023-05-19T13:07:20;20.30;59.20
38265;DHT22;24062;47.480;8.768;2023-05-19T13:09:47;20.50;59.30
38265;DHT22;24062;47.480;8.768;2023-05-19T13:12:14;20.60;58.40
38265;DHT22;24062;47.480;8.768;2023-05-19T13:14:43;20.60;59.10
38265;DHT22;24062;47.480;8.768;2023-05-19T13:17:10;20.60;58.50
38265;DHT22;24062;47.480;8.768;2023-05-19T13:19:37;20.60;58.50
38265;DHT22;24062;47.480;8.768;2023-05-19T13:22:04;20.50;58.40
38265;DHT22;24062;47.480;8.768;2023-05-19T13:24:31;20.30;58.30
38265;DHT22;24062;47.480;8.768;2023-05-19T13:26:58;19.90;57.90
38265;DHT22;24062;47.480;8.768;2023-05-19T13:29:25;19.70;58.30
38265;DHT22;24062;47.480;8.768;2023-05-19T13:31:54;19.50;58.50
38265;DHT22;24062;47.480;8.768;2023-05-19T13:34:21;19.30;58.00
38265;DHT22;24062;47.480;8.768;2023-05-19T13:36:47;19.10;58.10
38265;DHT22;24062;47.480;8.768;2023-05-19T13:39:15;19.00;58.30
38265;DHT22;24062;47.480;8.768;2023-05-19T13:41:42;18.90;58.60
38265;DHT22;24062;47.480;8.768;2023-05-19T13:44:08;18.70;59.30
38265;DHT22;24062;47.480;8.768;2023-05-19T13:46:35;18.50;58.40
38265;DHT22;24062;47.480;8.768;2023-05-19T13:49:04;18.20;58.40
38265;DHT22;24062;47.480;8.768;2023-05-19T13:51:31;18.10;58.60
38265;DHT22;24062;47.480;8.768;2023-05-19T13:53:58;18.10;59.10
38265;DHT22;24062;47.480;8.768;2023-05-19T13:56:25;18.30;59.50
38265;DHT22;24062;47.480;8.768;2023-05-19T13:58:52;18.50;59.60
38265;DHT22;24062;47.480;8.768;2023-05-19T14:01:19;18.70;59.70
38265;DHT22;24062;47.480;8.768;2023-05-19T14:03:46;18.70;59.50
38265;DHT22;24062;47.480;8.768;2023-05-19T14:06:15;18.70;59.30
38265;DHT22;24062;47.480;8.768;2023-05-19T14:08:42;18.60;59.30
38265;DHT22;24062;47.480;8.768;2023-05-19T14:11:09;18.50;59.30
38265;DHT22;24062;47.480;8.768;2023-05-19T14:13:35;18.30;58.90
38265;DHT22;24062;47.480;8.768;2023-05-19T14:16:03;18.00;59.00
38265;DHT22;24062;47.480;8.768;2023-05-19T14:18:30;17.80;59.40
38265;DHT22;24062;47.480;8.768;2023-05-19T14:20:57;17.70;60.20
38265;DHT22;24062;47.480;8.768;2023-05-19T14:23:25;17.90;60.20
38265;DHT22;24062;47.480;8.768;2023-05-19T14:25:53;18.00;60.40
38265;DHT22;24062;47.480;8.768;2023-05-19T14:28:20;18.00;60.10
38265;DHT22;24062;47.480;8.768;2023-05-19T14:30:47;18.00;59.80
38265;DHT22;24062;47.480;8.768;2023-05-19T14:33:14;18.00;59.90
38265;DHT22;24062;47.480;8.768;2023-05-19T14:35:41;17.90;60.10
38265;DHT22;24062;47.480;8.768;2023-05-19T14:38:08;17.70;59.70
38265;DHT22;24062;47.480;8.768;2023-05-19T14:40:37;17.60;59.70
38265;DHT22;24062;47.480;8.768;2023-05-19T14:43:05;17.40;59.80
38265;DHT22;24062;47.480;8.768;2023-05-19T14:45:32;17.30;60.50
38265;DHT22;24062;47.480;8.768;2023-05-19T14:47:59;17.20;60.60
38265;DHT22;24062;47.480;8.768;2023-05-19T14:50:27;17.10;60.70
38265;DHT22;24062;47.480;8.768;2023-05-19T14:52:54;17.00;60.90
38265;DHT22;24062;47.480;8.768;2023-05-19T14:55:21;16.80;61.20
38265;DHT22;24062;47.480;8.768;2023-05-19T14:57:49;16.70;61.30
38265;DHT22;24062;47.480;8.768;2023-05-19T15:00:16;16.50;62.00
38265;DHT22;24062;47.480;8.768;2023-05-19T15:02:43;16.30;62.10
38265;DHT22;24062;47.480;8.768;2023-05-19T15:05:10;16.20;62.50
38265;DHT22;24062;47.480;8.768;2023-05-19T15:07:37;16.10;62.80
38265;DHT22;24062;47.480;8.768;2023-05-19T15:10:04;16.00;62.90
38265;DHT22;24062;47.480;8.768;2023-05-19T15:12:32;16.00;63.20
38265;DHT22;24062;47.480;8.768;2023-05-19T15:15:00;16.00;63.40
38265;DHT22;24062;47.480;8.768;2023-05-19T15:17:27;15.90;63.60
38265;DHT22;24062;47.480;8.768;2023-05-19T15:19:54;15.90;63.80
38265;DHT22;24062;47.480;8.768;2023-05-19T15:22:21;15.90;63.70
38265;DHT22;24062;47.480;8.768;2023-05-19T15:24:48;15.90;63.90
38265;DHT22;24062;47.480;8.768;2023-05-19T15:27:14;16.00;64.20
38265;DHT22;24062;47.480;8.768;2023-05-19T15:29:41;16.10;64.30
38265;DHT22;24062;47.480;8.768;2023-05-19T15:32:10;16.10;64.30
38265;DHT22;24062;47.480;8.768;2023-05-19T15:34:37;16.20;64.40
38265;DHT22;24062;47.480;8.768;2023-05-19T15:37:04;16.30;64.60
38265;DHT22;24062;47.480;8.768;2023-05-19T15:39:31;16.40;64.70
38265;DHT22;24062;47.480;8.768;2023-05-19T15:41:58;16.50;64.40
38265;DHT22;24062;47.480;8.768;2023-05-19T15:44:25;16.70;64.90